Time;durP1;ratioP1;P1;durP2;ratioP2;P2;SDS_P1;SDS_P2;PMS_P1;PMS_P2;Temp;Humidity;BMP_temperature;BMP_pressure;BME280_temperature;BME280_humidity;BME280_pressure;Samples;Min_cycle;Max_cycle;Signal;HPM_P1;HPM_P2
2022/02/21 00:02:22;;;;;;;1.13;0.45;;;;;;;;;;5032063;28;20067;-83
2022/02/21 00:04:48;;;;;;;0.82;0.40;;;;;;;;;;5030841;28;20036;-83
2022/02/21 00:07:13;;;;;;;1.65;0.50;;;;;;;;;;5030634;28;20041;-83
2022/02/21 00:09:39;;;;;;;0.60;0.38;;;;;;;;;;5031693;28;20044;-83
2022/02/21 00:12:06;;;;;;;1.55;0.50;;;;;;;;;;5031176;28;20045;-83
2022/02/21 00:14:32;;;;;;;2.00;0.32;;;;;;;;;;5013010;28;20041;-83
2022/02/21 00:16:59;;;;;;;0.40;0.40;;;;;;;;;;5004627;28;20111;-83
2022/02/21 00:19:25;;;;;;;0.68;0.38;;;;;;;;;;5008177;28;20033;-82
2022/02/21 00:21:51;;;;;;;0.63;0.40;;;;;;;;;;5031582;28;20033;-82
2022/02/21 00:24:19;;;;;;;0.43;0.40;;;;;;;;;;5012173;28;20064;-83
2022/02/21 00:26:45;;;;;;;0.75;0.40;;;;;;;;;;5048405;28;20039;-82
2022/02/21 00:29:11;;;;;;;0.57;0.38;;;;;;;;;;5004531;28;20045;-82
2022/02/21 00:31:37;;;;;;;1.75;0.40;;;;;;;;;;5008804;28;20040;-82
2022/02/21 00:34:04;;;;;;;0.63;0.30;;;;;;;;;;5009519;28;20045;-82
2022/02/21 00:36:31;;;;;;;2.58;0.40;;;;;;;;;;5012755;28;20063;-82
2022/02/21 00:38:57;;;;;;;1.08;0.40;;;;;;;;;;5030025;28;20520;-82
2022/02/21 00:41:23;;;;;;;0.85;0.25;;;;;;;;;;5013675;28;20038;-82
2022/02/21 00:43:49;;;;;;;0.45;0.28;;;;;;;;;;5012916;28;20044;-82
2022/02/21 00:46:14;;;;;;;1.45;0.50;;;;;;;;;;5027218;28;20041;-82
2022/02/21 00:48:40;;;;;;;0.30;0.28;;;;;;;;;;5013814;28;20095;-82
2022/02/21 00:51:06;;;;;;;1.48;0.40;;;;;;;;;;5028662;28;20098;-82
2022/02/21 00:53:32;;;;;;;0.63;0.30;;;;;;;;;;5009366;28;20387;-82
2022/02/21 00:55:58;;;;;;;1.48;0.40;;;;;;;;;;5013078;28;20051;-82
2022/02/21 00:58:24;;;;;;;0.50;0.25;;;;;;;;;;5016363;28;20489;-82
2022/02/21 01:00:49;;;;;;;1.10;0.52;;;;;;;;;;5028982;28;20084;-82
2022/02/21 01:03:17;;;;;;;0.30;0.30;;;;;;;;;;5022703;28;20091;-82
2022/02/21 01:05:43;;;;;;;1.35;0.30;;;;;;;;;;5020932;28;20053;-82
2022/02/21 01:08:09;;;;;;;0.20;0.20;;;;;;;;;;5028296;28;20040;-82
2022/02/21 01:10:36;;;;;;;0.70;0.22;;;;;;;;;;5012251;28;20292;-82
2022/02/21 01:13:02;;;;;;;0.43;0.35;;;;;;;;;;5028063;28;20091;-82
2022/02/21 01:15:28;;;;;;;0.70;0.30;;;;;;;;;;5012155;28;20474;-82
2022/02/21 01:17:54;;;;;;;0.50;0.30;;;;;;;;;;5029016;28;20037;-82
2022/02/21 01:20:20;;;;;;;1.25;0.50;;;;;;;;;;5012194;28;20040;-82
2022/02/21 01:22:46;;;;;;;1.02;0.30;;;;;;;;;;5009865;28;20327;-82
2022/02/21 01:25:11;;;;;;;0.55;0.20;;;;;;;;;;5006944;28;20040;-82
2022/02/21 01:27:37;;;;;;;0.77;0.32;;;;;;;;;;5014187;28;20041;-82
2022/02/21 01:30:05;;;;;;;1.40;0.30;;;;;;;;;;5014843;28;20041;-82
2022/02/21 01:32:31;;;;;;;1.52;0.47;;;;;;;;;;5011175;28;20037;-82
2022/02/21 01:34:57;;;;;;;0.88;0.20;;;;;;;;;;5027619;28;20095;-82
2022/02/21 01:37:22;;;;;;;1.15;0.40;;;;;;;;;;5027517;28;20550;-82
2022/02/21 01:39:48;;;;;;;2.78;0.70;;;;;;;;;;5026175;28;20091;-82
2022/02/21 01:42:14;;;;;;;1.17;0.20;;;;;;;;;;5025677;28;20128;-82
2022/02/21 01:44:49;;;;;;;1.27;1.02;;;;;;;;;;5008457;28;20072;-82
2022/02/21 01:47:17;;;;;;;1.45;0.30;;;;;;;;;;5009546;28;20037;-81
2022/02/21 01:49:44;;;;;;;0.55;0.55;;;;;;;;;;5025565;28;20040;-81
2022/02/21 01:52:11;;;;;;;1.40;0.40;;;;;;;;;;5011381;28;20037;-81
2022/02/21 01:54:37;;;;;;;0.80;0.20;;;;;;;;;;5024691;28;20056;-81
2022/02/21 01:57:03;;;;;;;0.77;0.30;;;;;;;;;;5009236;28;20037;-81
2022/02/21 01:59:29;;;;;;;0.20;0.20;;;;;;;;;;5011901;28;20044;-81
2022/02/21 02:01:55;;;;;;;0.57;0.30;;;;;;;;;;5028639;28;20037;-81
2022/02/21 02:04:21;;;;;;;0.45;0.30;;;;;;;;;;5013065;28;20033;-81
2022/02/21 02:06:48;;;;;;;1.33;0.30;;;;;;;;;;5009017;28;20043;-81
2022/02/21 02:09:14;;;;;;;0.38;0.32;;;;;;;;;;5013634;28;20068;-82
2022/02/21 02:11:40;;;;;;;1.85;0.50;;;;;;;;;;5031057;28;20056;-82
2022/02/21 02:14:05;;;;;;;0.65;0.43;;;;;;;;;;5020819;28;20040;-82
2022/02/21 02:16:31;;;;;;;0.35;0.20;;;;;;;;;;5016418;28;20064;-82
2022/02/21 02:18:58;;;;;;;0.57;0.30;;;;;;;;;;5017294;28;20091;-82
2022/02/21 02:21:26;;;;;;;1.25;0.20;;;;;;;;;;5033096;28;20041;-82
2022/02/21 02:23:54;;;;;;;1.15;0.30;;;;;;;;;;5032661;28;20041;-82
2022/02/21 02:26:22;;;;;;;0.45;0.30;;;;;;;;;;5032893;28;20048;-82
2022/02/21 02:28:50;;;;;;;1.20;0.20;;;;;;;;;;5017068;28;20395;-82
2022/02/21 02:31:16;;;;;;;1.40;0.50;;;;;;;;;;5031879;28;20584;-82
2022/02/21 02:33:42;;;;;;;0.95;0.20;;;;;;;;;;5016120;28;20052;-82
2022/02/21 02:36:08;;;;;;;1.25;0.22;;;;;;;;;;5015895;28;20132;-82
2022/02/21 02:38:38;;;;;;;0.50;0.30;;;;;;;;;;5033327;28;20041;-82
2022/02/21 02:41:08;;;;;;;1.48;0.43;;;;;;;;;;5017969;28;20403;-82
2022/02/21 02:43:35;;;;;;;0.75;0.35;;;;;;;;;;5049417;28;20242;-82
2022/02/21 02:46:01;;;;;;;0.47;0.20;;;;;;;;;;5017523;28;20048;-82
2022/02/21 02:48:27;;;;;;;0.82;0.32;;;;;;;;;;5032945;28;20115;-82
2022/02/21 02:50:53;;;;;;;1.38;0.45;;;;;;;;;;5035497;28;20090;-82
2022/02/21 02:53:19;;;;;;;0.45;0.38;;;;;;;;;;5033033;28;20053;-82
2022/02/21 02:55:44;;;;;;;0.77;0.50;;;;;;;;;;5017556;28;20099;-82
2022/02/21 02:58:10;;;;;;;1.98;0.60;;;;;;;;;;5016933;28;20076;-83
2022/02/21 03:00:36;;;;;;;2.03;0.63;;;;;;;;;;5034965;28;20033;-84
2022/02/21 03:03:02;;;;;;;0.13;0.13;;;;;;;;;;5034003;28;20497;-83
2022/02/21 03:05:29;;;;;;;0.40;0.20;;;;;;;;;;5033319;28;20061;-84
2022/02/21 03:07:55;;;;;;;0.82;0.20;;;;;;;;;;5018125;28;20037;-84
2022/02/21 03:10:20;;;;;;;0.40;0.20;;;;;;;;;;5038382;28;20128;-84
2022/02/21 03:12:47;;;;;;;0.10;0.10;;;;;;;;;;5017106;28;20091;-84
2022/02/21 03:15:13;;;;;;;2.28;0.25;;;;;;;;;;5033101;28;20049;-84
2022/02/21 03:17:38;;;;;;;0.22;0.20;;;;;;;;;;5051571;28;20041;-83
2022/02/21 03:20:05;;;;;;;1.00;0.20;;;;;;;;;;5033369;28;20044;-84
2022/02/21 03:22:31;;;;;;;0.95;0.10;;;;;;;;;;5031880;28;20048;-83
2022/02/21 03:24:58;;;;;;;0.55;0.17;;;;;;;;;;5014334;28;20041;-83
2022/02/21 03:27:23;;;;;;;0.75;0.20;;;;;;;;;;5031861;28;20037;-83
2022/02/21 03:29:49;;;;;;;0.90;0.40;;;;;;;;;;5032008;28;20122;-83
2022/02/21 03:32:15;;;;;;;0.20;0.10;;;;;;;;;;5032773;28;20098;-82
2022/02/21 03:34:40;;;;;;;0.55;0.00;;;;;;;;;;5032146;28;20090;-82
2022/02/21 03:37:06;;;;;;;0.20;0.10;;;;;;;;;;5031352;28;20511;-82
2022/02/21 03:39:32;;;;;;;0.40;0.20;;;;;;;;;;5015510;28;20071;-82
2022/02/21 03:41:58;;;;;;;0.50;0.20;;;;;;;;;;5018746;28;20045;-82
2022/02/21 03:44:23;;;;;;;1.45;0.10;;;;;;;;;;5030711;28;20037;-82
2022/02/21 03:46:49;;;;;;;0.30;0.10;;;;;;;;;;5015167;28;20129;-83
2022/02/21 03:49:15;;;;;;;1.48;0.20;;;;;;;;;;5013941;28;20062;-82
2022/02/21 03:51:40;;;;;;;0.20;0.20;;;;;;;;;;5031811;28;20478;-82
2022/02/21 03:54:07;;;;;;;0.68;0.15;;;;;;;;;;5014074;28;20095;-82
2022/02/21 03:56:33;;;;;;;0.93;0.10;;;;;;;;;;5017644;28;20404;-82
2022/02/21 03:58:59;;;;;;;0.90;0.10;;;;;;;;;;5030852;28;20041;-82
2022/02/21 04:01:25;;;;;;;1.30;0.30;;;;;;;;;;5015583;28;20102;-80
2022/02/21 04:03:50;;;;;;;1.30;0.10;;;;;;;;;;5031396;28;20053;-81
2022/02/21 04:06:16;;;;;;;0.28;0.10;;;;;;;;;;5035306;28;20170;-80
2022/02/21 04:08:42;;;;;;;0.50;0.13;;;;;;;;;;5017549;28;20036;-81
2022/02/21 04:11:08;;;;;;;1.85;0.20;;;;;;;;;;5019977;28;20051;-81
2022/02/21 04:13:34;;;;;;;0.80;0.22;;;;;;;;;;5033921;28;20440;-81
2022/02/21 04:15:59;;;;;;;3.13;0.20;;;;;;;;;;5035131;28;20060;-81
2022/02/21 04:18:25;;;;;;;1.00;0.20;;;;;;;;;;5019074;28;20037;-81
2022/02/21 04:20:51;;;;;;;0.65;0.10;;;;;;;;;;5020542;28;20183;-81
2022/02/21 04:23:17;;;;;;;0.50;0.10;;;;;;;;;;5017375;28;20501;-81
2022/02/21 04:25:46;;;;;;;1.08;0.30;;;;;;;;;;5015694;28;20048;-81
2022/02/21 04:28:12;;;;;;;1.67;0.17;;;;;;;;;;5015020;28;20040;-81
2022/02/21 04:30:37;;;;;;;0.68;0.22;;;;;;;;;;5032869;28;20041;-81
2022/02/21 04:33:03;;;;;;;0.70;0.13;;;;;;;;;;5052635;28;20052;-81
2022/02/21 04:35:29;;;;;;;0.20;0.10;;;;;;;;;;5036234;28;20043;-81
2022/02/21 04:37:55;;;;;;;0.20;0.20;;;;;;;;;;5038109;28;20406;-81
2022/02/21 04:40:23;;;;;;;0.45;0.20;;;;;;;;;;5020711;28;20548;-82
2022/02/21 04:42:50;;;;;;;0.20;0.20;;;;;;;;;;5018096;28;20033;-82
2022/02/21 04:45:16;;;;;;;1.50;0.20;;;;;;;;;;5023188;28;20239;-82
2022/02/21 04:47:42;;;;;;;0.68;0.20;;;;;;;;;;5020308;28;20124;-82
2022/02/21 04:50:09;;;;;;;0.17;0.10;;;;;;;;;;5038920;28;20041;-81
2022/02/21 04:52:36;;;;;;;0.65;0.20;;;;;;;;;;5038646;28;20406;-82
2022/02/21 04:55:02;;;;;;;0.68;0.20;;;;;;;;;;5041259;28;20067;-81
2022/02/21 04:57:28;;;;;;;0.45;0.20;;;;;;;;;;5025919;28;20064;-82
2022/02/21 04:59:54;;;;;;;1.27;0.22;;;;;;;;;;5030515;28;20028;-82
2022/02/21 05:02:19;;;;;;;1.10;0.20;;;;;;;;;;5024355;28;20525;-81
2022/02/21 05:04:45;;;;;;;0.20;0.10;;;;;;;;;;5041550;28;20061;-82
2022/02/21 05:07:11;;;;;;;0.17;0.10;;;;;;;;;;5041734;28;20045;-81
2022/02/21 05:09:36;;;;;;;1.20;0.10;;;;;;;;;;5024428;28;20104;-81
2022/02/21 05:12:03;;;;;;;1.17;0.50;;;;;;;;;;5058238;28;20045;-81
2022/02/21 05:14:29;;;;;;;2.90;0.60;;;;;;;;;;5056908;28;20509;-81
2022/02/21 05:16:54;;;;;;;1.33;0.45;;;;;;;;;;5024635;28;20100;-81
2022/02/21 05:19:20;;;;;;;0.68;0.40;;;;;;;;;;5024221;28;20056;-81
2022/02/21 05:21:46;;;;;;;1.17;0.40;;;;;;;;;;5043353;28;20029;-81
2022/02/21 05:24:11;;;;;;;0.30;0.22;;;;;;;;;;5021982;28;20045;-81
2022/02/21 05:26:37;;;;;;;0.88;0.17;;;;;;;;;;5022704;28;20044;-81
2022/02/21 05:29:03;;;;;;;1.50;0.20;;;;;;;;;;5037427;28;20340;-81
2022/02/21 05:31:30;;;;;;;1.10;0.15;;;;;;;;;;5027360;28;20670;-81
2022/02/21 05:33:56;;;;;;;0.13;0.03;;;;;;;;;;5038657;28;20069;-81
2022/02/21 05:36:22;;;;;;;0.55;0.22;;;;;;;;;;5024932;28;20048;-79
2022/02/21 05:38:47;;;;;;;1.48;0.60;;;;;;;;;;5011617;28;20103;-79
2022/02/21 05:41:13;;;;;;;0.50;0.43;;;;;;;;;;5013058;28;20045;-79
2022/02/21 05:43:39;;;;;;;0.25;0.25;;;;;;;;;;5010478;28;20083;-79
2022/02/21 05:46:04;;;;;;;1.17;0.25;;;;;;;;;;5032323;28;20575;-79
2022/02/21 05:48:30;;;;;;;2.40;0.55;;;;;;;;;;5032541;28;20049;-79
2022/02/21 05:50:56;;;;;;;1.52;0.35;;;;;;;;;;5031088;28;20052;-79
2022/02/21 05:53:22;;;;;;;1.38;0.30;;;;;;;;;;5034141;28;20037;-79
2022/02/21 05:55:48;;;;;;;1.17;0.50;;;;;;;;;;5018506;28;20033;-79
2022/02/21 05:58:13;;;;;;;2.63;0.30;;;;;;;;;;5015402;28;20246;-79
2022/02/21 06:00:42;;;;;;;1.40;0.28;;;;;;;;;;5032705;28;20120;-79
2022/02/21 06:03:07;;;;;;;2.70;0.50;;;;;;;;;;5033988;28;20611;-79
2022/02/21 06:05:33;;;;;;;3.38;0.77;;;;;;;;;;5032463;28;20057;-79
2022/02/21 06:07:59;;;;;;;1.20;0.38;;;;;;;;;;5034590;28;20037;-79
2022/02/21 06:10:24;;;;;;;3.90;0.50;;;;;;;;;;5019559;28;20090;-80
2022/02/21 06:12:50;;;;;;;1.40;0.40;;;;;;;;;;5017891;28;20037;-79
2022/02/21 06:15:16;;;;;;;3.92;0.57;;;;;;;;;;5033773;28;20068;-79
2022/02/21 06:17:42;;;;;;;1.02;0.40;;;;;;;;;;5035013;28;20063;-80
2022/02/21 06:20:08;;;;;;;3.42;0.50;;;;;;;;;;5054170;28;20382;-79
2022/02/21 06:22:34;;;;;;;1.98;0.80;;;;;;;;;;5017285;28;20041;-80
2022/02/21 06:25:00;;;;;;;2.83;0.50;;;;;;;;;;5023420;28;20060;-80
2022/02/21 06:27:27;;;;;;;2.05;0.88;;;;;;;;;;5021383;28;20044;-79
2022/02/21 06:29:53;;;;;;;1.90;0.70;;;;;;;;;;5037246;28;20457;-80
2022/02/21 06:32:18;;;;;;;4.82;0.70;;;;;;;;;;5036474;28;20041;-80
2022/02/21 06:34:48;;;;;;;3.25;0.80;;;;;;;;;;5019489;28;20033;-79
2022/02/21 06:37:14;;;;;;;3.70;0.80;;;;;;;;;;5017009;28;20057;-79
2022/02/21 06:39:40;;;;;;;2.45;0.63;;;;;;;;;;5034536;28;20097;-79
2022/02/21 06:42:05;;;;;;;5.00;0.90;;;;;;;;;;5051484;28;20037;-79
2022/02/21 06:44:31;;;;;;;6.55;1.08;;;;;;;;;;5013731;28;20041;-79
2022/02/21 06:46:57;;;;;;;5.50;1.30;;;;;;;;;;5035627;28;20706;-79
2022/02/21 06:49:23;;;;;;;6.22;1.33;;;;;;;;;;5035649;28;20045;-80
2022/02/21 06:51:48;;;;;;;7.55;1.00;;;;;;;;;;5019113;28;20629;-78
2022/02/21 06:54:14;;;;;;;3.38;0.80;;;;;;;;;;5033983;28;20061;-80
2022/02/21 06:56:40;;;;;;;3.88;1.00;;;;;;;;;;5033668;28;20115;-79
2022/02/21 06:59:05;;;;;;;2.58;0.98;;;;;;;;;;5016911;28;20586;-80
2022/02/21 07:01:31;;;;;;;8.38;1.60;;;;;;;;;;5018036;28;20045;-80
2022/02/21 07:03:57;;;;;;;4.80;1.00;;;;;;;;;;5033526;28;20415;-79
2022/02/21 07:06:23;;;;;;;5.25;1.27;;;;;;;;;;5018022;28;20549;-79
2022/02/21 07:08:49;;;;;;;9.38;2.35;;;;;;;;;;5013525;28;20045;-80
2022/02/21 07:11:15;;;;;;;6.82;1.50;;;;;;;;;;5017946;28;20041;-80
2022/02/21 07:13:40;;;;;;;10.35;1.73;;;;;;;;;;5017430;28;20060;-80
2022/02/21 07:16:06;;;;;;;6.63;1.65;;;;;;;;;;5015532;28;20043;-78
2022/02/21 07:18:37;;;;;;;8.77;2.45;;;;;;;;;;5031127;28;20124;-80
2022/02/21 07:21:02;;;;;;;9.23;1.90;;;;;;;;;;5033628;28;20047;-79
2022/02/21 07:23:30;;;;;;;9.25;2.25;;;;;;;;;;5010658;28;20112;-80
2022/02/21 07:25:56;;;;;;;10.05;1.98;;;;;;;;;;5022728;28;20053;-79
2022/02/21 07:28:21;;;;;;;10.63;2.15;;;;;;;;;;5016849;28;20044;-79
2022/02/21 07:30:48;;;;;;;4.60;1.23;;;;;;;;;;5029020;28;20105;-79
2022/02/21 07:33:14;;;;;;;9.05;1.60;;;;;;;;;;5011892;28;20060;-78
2022/02/21 07:35:41;;;;;;;8.85;1.70;;;;;;;;;;5029969;28;20264;-79
2022/02/21 07:38:07;;;;;;;7.45;2.05;;;;;;;;;;5030167;28;20337;-79
2022/02/21 07:40:33;;;;;;;6.25;1.58;;;;;;;;;;5030647;28;20473;-79
2022/02/21 07:42:58;;;;;;;9.27;2.03;;;;;;;;;;5026007;28;20067;-80
2022/02/21 07:45:25;;;;;;;8.55;1.60;;;;;;;;;;5046799;28;20517;-80
2022/02/21 07:47:53;;;;;;;9.35;1.83;;;;;;;;;;5033126;28;20036;-80
2022/02/21 07:50:19;;;;;;;6.50;1.92;;;;;;;;;;5048283;28;20029;-81
2022/02/21 07:52:45;;;;;;;8.77;1.70;;;;;;;;;;5031218;28;20041;-79
2022/02/21 07:55:12;;;;;;;9.27;1.58;;;;;;;;;;5027931;28;20467;-80
2022/02/21 07:57:40;;;;;;;8.68;2.13;;;;;;;;;;5028739;28;20047;-80
2022/02/21 08:00:07;;;;;;;10.82;1.48;;;;;;;;;;5029552;28;20037;-79
2022/02/21 08:02:33;;;;;;;7.28;1.52;;;;;;;;;;5031615;28;20052;-80
2022/02/21 08:04:58;;;;;;;6.45;1.60;;;;;;;;;;5032604;28;20040;-81
2022/02/21 08:07:25;;;;;;;10.43;2.08;;;;;;;;;;5016973;28;20497;-81
2022/02/21 08:09:51;;;;;;;5.70;1.63;;;;;;;;;;5018390;28;20044;-81
2022/02/21 08:12:17;;;;;;;6.60;1.95;;;;;;;;;;5032377;28;20102;-79
2022/02/21 08:14:42;;;;;;;8.60;1.55;;;;;;;;;;5032487;28;20075;-80
2022/02/21 08:17:08;;;;;;;6.72;1.45;;;;;;;;;;5031481;28;20037;-80
2022/02/21 08:19:34;;;;;;;8.45;1.65;;;;;;;;;;5022440;28;20075;-80
2022/02/21 08:21:59;;;;;;;5.75;1.08;;;;;;;;;;5016982;28;20486;-80
2022/02/21 08:24:25;;;;;;;8.40;1.60;;;;;;;;;;5015298;28;20049;-79
2022/02/21 08:26:51;;;;;;;7.32;1.50;;;;;;;;;;5032288;28;20037;-80
2022/02/21 08:29:16;;;;;;;7.93;1.30;;;;;;;;;;5032861;28;20065;-80
2022/02/21 08:31:44;;;;;;;7.30;1.30;;;;;;;;;;5031138;28;20029;-79
2022/02/21 08:34:10;;;;;;;6.95;1.20;;;;;;;;;;5029372;28;20144;-79
2022/02/21 08:36:36;;;;;;;6.85;1.38;;;;;;;;;;5028132;28;20040;-80
2022/02/21 08:39:01;;;;;;;6.30;0.88;;;;;;;;;;5030543;28;20041;-80
2022/02/21 08:41:27;;;;;;;4.05;0.95;;;;;;;;;;5013579;28;20048;-79
2022/02/21 08:43:54;;;;;;;10.77;1.98;;;;;;;;;;5015923;28;20041;-80
2022/02/21 08:46:20;;;;;;;7.80;1.50;;;;;;;;;;5031083;28;20041;-79
2022/02/21 08:48:45;;;;;;;6.65;1.45;;;;;;;;;;5016914;28;20393;-79
2022/02/21 08:51:11;;;;;;;8.05;1.45;;;;;;;;;;5030743;28;20560;-81
2022/02/21 08:53:37;;;;;;;4.28;1.23;;;;;;;;;;5048466;28;20071;-81
2022/02/21 08:56:04;;;;;;;3.22;1.10;;;;;;;;;;5033058;28;20045;-80
2022/02/21 08:58:29;;;;;;;3.60;1.20;;;;;;;;;;5015756;28;20057;-80
2022/02/21 09:00:55;;;;;;;8.77;1.92;;;;;;;;;;5033347;28;20155;-82
2022/02/21 09:03:26;;;;;;;6.43;0.80;;;;;;;;;;5036109;28;20041;-81
2022/02/21 09:05:52;;;;;;;5.45;1.55;;;;;;;;;;5050760;28;20094;-81
2022/02/21 09:08:18;;;;;;;6.78;1.10;;;;;;;;;;5033428;28;20414;-81
2022/02/21 09:10:44;;;;;;;11.48;1.60;;;;;;;;;;5017269;28;20537;-81
2022/02/21 09:13:10;;;;;;;9.38;2.30;;;;;;;;;;5017440;28;20049;-81
2022/02/21 09:15:35;;;;;;;7.63;1.42;;;;;;;;;;5017701;28;20426;-81
2022/02/21 09:18:04;;;;;;;7.65;1.58;;;;;;;;;;5033725;28;20061;-82
2022/02/21 09:20:30;;;;;;;9.25;1.92;;;;;;;;;;5016419;28;20040;-82
2022/02/21 09:22:56;;;;;;;7.93;1.23;;;;;;;;;;5015714;28;20045;-80
2022/02/21 09:25:22;;;;;;;3.00;1.02;;;;;;;;;;5031244;28;20072;-81
2022/02/21 09:27:48;;;;;;;4.57;1.05;;;;;;;;;;5032364;28;20443;-80
2022/02/21 09:30:13;;;;;;;6.47;1.33;;;;;;;;;;5017376;28;20041;-81
2022/02/21 09:32:39;;;;;;;7.57;1.92;;;;;;;;;;5030967;28;20041;-80
2022/02/21 09:35:06;;;;;;;5.55;1.58;;;;;;;;;;5018687;28;20492;-81
2022/02/21 09:37:33;;;;;;;6.57;1.30;;;;;;;;;;5013708;28;20566;-82
2022/02/21 09:39:59;;;;;;;7.55;1.20;;;;;;;;;;5032316;28;20494;-81
2022/02/21 09:42:25;;;;;;;7.95;1.30;;;;;;;;;;5029133;28;20075;-81
2022/02/21 09:44:50;;;;;;;7.47;1.30;;;;;;;;;;5028090;28;20045;-81
2022/02/21 09:47:17;;;;;;;4.00;1.00;;;;;;;;;;5012291;28;20568;-81
2022/02/21 09:49:43;;;;;;;7.63;1.42;;;;;;;;;;5013887;28;20048;-80
2022/02/21 09:52:09;;;;;;;3.20;0.98;;;;;;;;;;5014260;28;20722;-81
2022/02/21 09:54:37;;;;;;;5.90;1.40;;;;;;;;;;5029064;28;20033;-81
2022/02/21 09:57:03;;;;;;;7.15;1.80;;;;;;;;;;5029297;28;20045;-81
2022/02/21 09:59:28;;;;;;;5.60;1.30;;;;;;;;;;5012035;28;20044;-81
2022/02/21 10:01:54;;;;;;;2.72;1.20;;;;;;;;;;5029182;28;20053;-81
2022/02/21 10:04:25;;;;;;;6.65;1.30;;;;;;;;;;5015601;28;20518;-82
2022/02/21 10:06:52;;;;;;;4.97;1.40;;;;;;;;;;5009068;28;20120;-81
2022/02/21 10:09:18;;;;;;;5.72;2.10;;;;;;;;;;4997648;28;20072;-80
2022/02/21 10:11:48;;;;;;;2.72;0.77;;;;;;;;;;5028575;28;20044;-80
2022/02/21 10:14:17;;;;;;;6.20;1.05;;;;;;;;;;5009560;28;20048;-81
2022/02/21 10:16:48;;;;;;;5.40;1.00;;;;;;;;;;5012029;28;20037;-81
2022/02/21 10:19:38;;;;;;;3.17;0.85;;;;;;;;;;5027163;28;20280;-81
2022/02/21 10:22:14;;;;;;;5.90;1.25;;;;;;;;;;5010162;28;20118;-80
2022/02/21 10:24:46;;;;;;;4.70;1.23;;;;;;;;;;5011101;28;20285;-81
2022/02/21 10:27:21;;;;;;;3.65;1.20;;;;;;;;;;5011180;28;20037;-81
2022/02/21 10:29:51;;;;;;;3.88;1.00;;;;;;;;;;5015194;28;20059;-81
2022/02/21 10:32:22;;;;;;;3.92;1.30;;;;;;;;;;5027717;28;20041;-81
2022/02/21 10:34:47;;;;;;;4.68;0.80;;;;;;;;;;5014045;28;20041;-82
2022/02/21 10:37:18;;;;;;;5.45;1.05;;;;;;;;;;5031608;28;20041;-81
2022/02/21 10:39:44;;;;;;;4.57;1.30;;;;;;;;;;5013235;28;20037;-80
2022/02/21 10:42:09;;;;;;;7.38;1.45;;;;;;;;;;5014960;28;20052;-81
2022/02/21 10:44:40;;;;;;;4.85;0.90;;;;;;;;;;5014626;28;20082;-80
2022/02/21 10:47:15;;;;;;;6.30;1.00;;;;;;;;;;5027677;28;20053;-80
2022/02/21 10:49:45;;;;;;;7.60;1.48;;;;;;;;;;5028833;28;20068;-81
2022/02/21 10:52:17;;;;;;;4.28;1.02;;;;;;;;;;5029131;28;20049;-80
2022/02/21 10:54:43;;;;;;;3.72;0.88;;;;;;;;;;5012718;28;20083;-80
2022/02/21 10:57:10;;;;;;;7.18;1.33;;;;;;;;;;5011405;28;20083;-81
2022/02/21 10:59:36;;;;;;;3.45;1.10;;;;;;;;;;5013060;28;20036;-80
2022/02/21 11:02:02;;;;;;;4.40;1.25;;;;;;;;;;5013824;28;20051;-80
2022/02/21 11:04:30;;;;;;;5.63;1.13;;;;;;;;;;5012078;28;20047;-80
2022/02/21 11:06:58;;;;;;;2.88;0.88;;;;;;;;;;5008690;28;20041;-80
2022/02/21 11:09:28;;;;;;;2.97;0.73;;;;;;;;;;5011102;28;20120;-80
2022/02/21 11:11:57;;;;;;;5.65;1.08;;;;;;;;;;5030416;28;20033;-80
2022/02/21 11:14:23;;;;;;;4.78;1.25;;;;;;;;;;5007731;28;20037;-80
2022/02/21 11:16:50;;;;;;;2.63;1.27;;;;;;;;;;5012835;28;20044;-79
2022/02/21 11:19:19;;;;;;;4.57;0.90;;;;;;;;;;5012835;28;20037;-80
2022/02/21 11:21:46;;;;;;;7.00;1.13;;;;;;;;;;5043965;28;20076;-80
2022/02/21 11:24:14;;;;;;;7.80;1.23;;;;;;;;;;5013032;28;20045;-79
2022/02/21 11:27:01;;;;;;;6.57;1.17;;;;;;;;;;5046334;28;20404;-80
2022/02/21 11:29:42;;;;;;;5.03;1.38;;;;;;;;;;5030647;28;20379;-80
2022/02/21 11:32:16;;;;;;;5.68;1.45;;;;;;;;;;5012945;28;20122;-79
2022/02/21 11:34:46;;;;;;;3.85;1.13;;;;;;;;;;5013864;28;20037;-80
2022/02/21 11:37:23;;;;;;;4.88;1.15;;;;;;;;;;5030100;28;20540;-79
2022/02/21 11:39:57;;;;;;;4.97;1.00;;;;;;;;;;5029014;28;20037;-80
2022/02/21 11:42:26;;;;;;;4.13;1.25;;;;;;;;;;5033129;28;20048;-80
2022/02/21 11:44:54;;;;;;;6.95;1.23;;;;;;;;;;5030412;28;20037;-80
2022/02/21 11:47:39;;;;;;;3.28;1.10;;;;;;;;;;5012387;28;20047;-79
2022/02/21 11:50:08;;;;;;;7.68;1.65;;;;;;;;;;5028104;28;20048;-80
2022/02/21 11:52:37;;;;;;;5.88;1.42;;;;;;;;;;5028640;28;20045;-79
2022/02/21 11:55:24;;;;;;;11.25;2.10;;;;;;;;;;5029090;28;20524;-80
2022/02/21 11:57:49;;;;;;;7.35;1.35;;;;;;;;;;5048150;28;20037;-79
2022/02/21 12:00:39;;;;;;;5.50;1.02;;;;;;;;;;5015050;28;20041;-80
2022/02/21 12:03:15;;;;;;;4.00;1.25;;;;;;;;;;5017648;28;20063;-80
2022/02/21 12:06:10;;;;;;;6.35;1.25;;;;;;;;;;5048950;28;20037;-79
2022/02/21 12:08:36;;;;;;;4.95;0.90;;;;;;;;;;5029783;28;20045;-79
2022/02/21 12:11:04;;;;;;;6.60;1.20;;;;;;;;;;5029407;28;20643;-80
2022/02/21 12:13:34;;;;;;;7.82;1.80;;;;;;;;;;5032341;28;20033;-80
2022/02/21 12:16:03;;;;;;;6.72;1.15;;;;;;;;;;5047921;28;20392;-79
2022/02/21 12:18:31;;;;;;;5.18;1.15;;;;;;;;;;5030158;28;20037;-80
2022/02/21 12:21:28;;;;;;;7.22;1.90;;;;;;;;;;5029529;28;20033;-79
2022/02/21 12:24:00;;;;;;;8.15;1.40;;;;;;;;;;5014093;28;20052;-80
2022/02/21 12:26:27;;;;;;;5.95;1.25;;;;;;;;;;5032372;28;20409;-79
2022/02/21 12:29:20;;;;;;;7.78;1.63;;;;;;;;;;5014927;28;20037;-80
2022/02/21 12:32:05;;;;;;;4.07;0.90;;;;;;;;;;5009121;28;20037;-80
2022/02/21 12:34:38;;;;;;;5.03;1.25;;;;;;;;;;5012429;28;20037;-80
2022/02/21 12:37:09;;;;;;;5.57;0.88;;;;;;;;;;5011001;28;20047;-83
2022/02/21 12:39:37;;;;;;;4.78;0.90;;;;;;;;;;5016007;28;20033;-81
2022/02/21 12:42:04;;;;;;;4.22;1.27;;;;;;;;;;5019894;28;20061;-79
2022/02/21 12:44:30;;;;;;;4.18;0.98;;;;;;;;;;5028316;28;20049;-81
2022/02/21 12:47:00;;;;;;;3.65;0.80;;;;;;;;;;5011237;28;20031;-79
2022/02/21 12:49:29;;;;;;;5.13;1.50;;;;;;;;;;5031720;28;20040;-80
2022/02/21 12:52:07;;;;;;;5.53;1.25;;;;;;;;;;5011378;28;20401;-80
2022/02/21 12:54:34;;;;;;;4.93;1.10;;;;;;;;;;5025188;28;20140;-79
2022/02/21 12:57:01;;;;;;;4.22;1.00;;;;;;;;;;5009838;28;20033;-79
2022/02/21 12:59:30;;;;;;;8.25;1.52;;;;;;;;;;5025053;28;20041;-80
2022/02/21 13:01:57;;;;;;;2.42;0.90;;;;;;;;;;5013372;28;20060;-80
2022/02/21 13:04:24;;;;;;;3.90;1.20;;;;;;;;;;5012367;28;20497;-80
2022/02/21 13:06:50;;;;;;;2.45;0.77;;;;;;;;;;5030040;28;20032;-79
2022/02/21 13:09:22;;;;;;;5.07;1.23;;;;;;;;;;5032262;28;20041;-80
2022/02/21 13:11:54;;;;;;;5.57;1.38;;;;;;;;;;5017290;28;20118;-80
2022/02/21 13:14:22;;;;;;;3.78;1.02;;;;;;;;;;5013299;28;20041;-79
2022/02/21 13:16:53;;;;;;;7.25;1.23;;;;;;;;;;5047510;28;20397;-80
2022/02/21 13:19:27;;;;;;;4.55;0.98;;;;;;;;;;5016893;28;20037;-79
2022/02/21 13:21:53;;;;;;;4.70;0.98;;;;;;;;;;5012339;28;20069;-80
2022/02/21 13:24:19;;;;;;;6.07;1.00;;;;;;;;;;5012126;28;20037;-81
2022/02/21 13:26:47;;;;;;;3.15;1.00;;;;;;;;;;5013878;28;20390;-80
2022/02/21 13:29:31;;;;;;;3.90;1.17;;;;;;;;;;5028894;28;20189;-80
2022/02/21 13:31:59;;;;;;;5.65;0.82;;;;;;;;;;5014614;28;20041;-80
2022/02/21 13:34:48;;;;;;;4.32;1.13;;;;;;;;;;5015425;28;20045;-81
2022/02/21 13:37:17;;;;;;;3.20;1.00;;;;;;;;;;5030191;28;20044;-81
2022/02/21 13:39:54;;;;;;;4.63;0.90;;;;;;;;;;5016077;28;20033;-80
2022/02/21 13:42:34;;;;;;;4.40;1.27;;;;;;;;;;5015158;28;20068;-80
2022/02/21 13:45:31;;;;;;;3.00;1.27;;;;;;;;;;5014312;28;20371;-80
2022/02/21 13:48:10;;;;;;;2.83;0.65;;;;;;;;;;5040208;28;20512;-80
2022/02/21 13:50:43;;;;;;;7.13;1.23;;;;;;;;;;5042254;28;20124;-80
2022/02/21 13:53:14;;;;;;;5.45;1.02;;;;;;;;;;5015835;28;20052;-80
2022/02/21 13:55:41;;;;;;;6.35;1.20;;;;;;;;;;5013147;28;20037;-80
2022/02/21 13:58:12;;;;;;;4.75;1.05;;;;;;;;;;5019902;28;20455;-80
2022/02/21 14:00:42;;;;;;;5.25;1.00;;;;;;;;;;5012348;28;20636;-80
2022/02/21 14:03:08;;;;;;;6.25;1.00;;;;;;;;;;5029320;28;20497;-80
2022/02/21 14:05:51;;;;;;;1.85;0.50;;;;;;;;;;5031082;28;20040;-79
2022/02/21 14:08:17;;;;;;;4.50;0.95;;;;;;;;;;5011386;28;20098;-79
2022/02/21 14:10:55;;;;;;;3.47;1.10;;;;;;;;;;5016618;28;20037;-79
2022/02/21 14:13:21;;;;;;;5.07;1.05;;;;;;;;;;5012121;28;20033;-80
2022/02/21 14:15:47;;;;;;;3.45;1.35;;;;;;;;;;5014989;28;20492;-80
2022/02/21 14:18:12;;;;;;;3.35;0.70;;;;;;;;;;5032688;28;20037;-80
2022/02/21 14:20:38;;;;;;;3.60;0.90;;;;;;;;;;5017225;28;20041;-80
2022/02/21 14:23:06;;;;;;;9.80;1.35;;;;;;;;;;5033735;28;20458;-80
2022/02/21 14:25:31;;;;;;;3.65;0.90;;;;;;;;;;5034498;28;20067;-80
2022/02/21 14:27:57;;;;;;;3.58;1.33;;;;;;;;;;5016044;28;20045;-80
2022/02/21 14:30:27;;;;;;;4.15;1.25;;;;;;;;;;5031526;28;20086;-80
2022/02/21 14:32:53;;;;;;;4.18;1.00;;;;;;;;;;5034412;28;20048;-81
2022/02/21 14:35:18;;;;;;;4.32;0.98;;;;;;;;;;5015303;28;20146;-80
2022/02/21 14:37:44;;;;;;;5.70;1.02;;;;;;;;;;5011412;28;20036;-81
2022/02/21 14:40:10;;;;;;;2.78;0.93;;;;;;;;;;5031924;28;20671;-81
2022/02/21 14:42:36;;;;;;;5.78;1.10;;;;;;;;;;5032971;28;20101;-80
2022/02/21 14:45:03;;;;;;;5.20;1.00;;;;;;;;;;5033401;28;20433;-81
2022/02/21 14:47:28;;;;;;;7.63;1.38;;;;;;;;;;5013000;28;20041;-80